Time;durP1;ratioP1;P1;durP2;ratioP2;P2;SDS_P1;SDS_P2;PMS_P1;PMS_P2;Temp;Humidity;BMP_temperature;BMP_pressure;BME280_temperature;BME280_humidity;BME280_pressure;Samples;Min_cycle;Max_cycle;Signal;HPM_P1;HPM_P2
2022/12/08 00:01:05;;;;;;;9.07;7.10;;;7.30;96.70;;;;;;942047;147;27234;-82
2022/12/08 00:03:31;;;;;;;7.13;6.13;;;7.30;96.70;;;;;;942064;147;27437;-82
2022/12/08 00:11:27;;;;;;;7.73;6.57;;;7.30;96.60;;;;;;941091;147;27392;-82
2022/12/08 00:13:53;;;;;;;8.57;6.87;;;7.40;96.50;;;;;;943125;146;27318;-82
2022/12/08 00:16:20;;;;;;;8.47;7.57;;;7.40;96.50;;;;;;956406;145;27381;-82
2022/12/08 00:18:46;;;;;;;9.17;7.40;;;7.40;96.30;;;;;;955001;146;27379;-82
2022/12/08 00:21:13;;;;;;;9.33;6.73;;;7.40;96.10;;;;;;954287;146;27370;-82
2022/12/08 00:23:40;;;;;;;9.40;7.23;;;7.40;96.00;;;;;;953620;146;27297;-82
2022/12/08 00:26:06;;;;;;;9.30;7.67;;;7.30;95.90;;;;;;954790;146;27374;-82
2022/12/08 00:28:33;;;;;;;9.20;6.83;;;7.30;95.80;;;;;;951968;145;27244;-82
2022/12/08 00:30:59;;;;;;;9.27;7.60;;;7.30;95.70;;;;;;953828;146;27379;-82
2022/12/08 00:33:29;;;;;;;8.70;7.17;;;7.30;95.70;;;;;;955058;146;27354;-81
2022/12/08 00:35:55;;;;;;;7.80;6.73;;;7.30;95.60;;;;;;954747;145;27295;-82
2022/12/08 00:38:22;;;;;;;10.17;8.10;;;7.30;95.60;;;;;;954765;147;27363;-82
2022/12/08 00:40:49;;;;;;;8.37;7.30;;;7.20;95.50;;;;;;952581;146;27305;-81
2022/12/08 00:43:15;;;;;;;8.23;7.17;;;7.20;95.50;;;;;;954091;146;27357;-81
2022/12/08 00:45:42;;;;;;;8.20;7.30;;;7.20;95.50;;;;;;954580;146;27346;-82
2022/12/08 00:48:08;;;;;;;9.47;7.07;;;7.10;95.50;;;;;;954529;146;27321;-82
2022/12/08 00:50:35;;;;;;;8.80;7.60;;;7.10;95.60;;;;;;953459;145;27300;-82
2022/12/08 00:53:01;;;;;;;8.20;7.13;;;7.00;95.60;;;;;;954550;146;27279;-81
2022/12/08 00:55:28;;;;;;;9.33;7.27;;;7.00;95.70;;;;;;954189;146;27321;-82
2022/12/08 00:57:55;;;;;;;8.07;6.80;;;7.00;95.90;;;;;;954774;146;27358;-82
2022/12/08 01:00:21;;;;;;;10.03;8.57;;;7.00;96.10;;;;;;955206;146;28431;-82
2022/12/08 01:02:48;;;;;;;10.53;8.27;;;7.00;96.30;;;;;;952569;147;27312;-82
2022/12/08 01:05:14;;;;;;;9.07;7.27;;;7.00;96.40;;;;;;955151;146;27312;-82
2022/12/08 01:07:41;;;;;;;8.87;7.97;;;7.00;96.50;;;;;;954722;146;27364;-82
2022/12/08 01:10:08;;;;;;;10.10;7.70;;;7.00;96.60;;;;;;951925;145;27402;-82
2022/12/08 01:12:34;;;;;;;9.17;7.50;;;7.00;96.50;;;;;;955260;146;28279;-82
2022/12/08 01:15:01;;;;;;;7.97;6.93;;;7.10;96.60;;;;;;955051;146;27395;-82
2022/12/08 01:17:27;;;;;;;9.93;7.90;;;7.10;96.60;;;;;;955397;146;27409;-82
2022/12/08 01:19:54;;;;;;;7.93;7.07;;;7.10;96.60;;;;;;954148;146;27399;-81
2022/12/08 01:22:20;;;;;;;8.03;7.10;;;7.10;96.50;;;;;;954526;146;27358;-82
2022/12/08 01:24:47;;;;;;;10.50;8.23;;;7.10;96.50;;;;;;955135;146;27371;-82
2022/12/08 01:27:14;;;;;;;11.47;8.40;;;7.20;96.50;;;;;;955355;146;27255;-82
2022/12/08 01:29:40;;;;;;;10.07;9.00;;;7.20;96.50;;;;;;955882;146;27308;-82
2022/12/08 01:32:07;;;;;;;9.67;8.03;;;7.20;96.50;;;;;;953438;145;27293;-82
2022/12/08 01:34:33;;;;;;;10.10;8.10;;;7.20;96.40;;;;;;955326;146;27875;-82
2022/12/08 01:37:00;;;;;;;11.27;8.43;;;7.20;96.40;;;;;;955013;146;27448;-82
2022/12/08 01:39:27;;;;;;;9.43;7.63;;;7.20;96.40;;;;;;955228;145;27288;-81
2022/12/08 01:41:53;;;;;;;10.03;7.77;;;7.20;96.40;;;;;;955623;145;27388;-82
2022/12/08 01:44:20;;;;;;;10.60;8.47;;;7.30;96.40;;;;;;955644;146;27378;-81
2022/12/08 01:46:49;;;;;;;11.30;8.77;;;7.30;96.20;;;;;;956915;146;27291;-81
2022/12/08 01:49:19;;;;;;;10.30;8.73;;;7.30;96.20;;;;;;955366;146;27361;-81
2022/12/08 01:51:45;;;;;;;10.50;8.30;;;7.30;96.10;;;;;;958869;146;27396;-82
2022/12/08 01:54:12;;;;;;;11.63;9.57;;;7.30;96.00;;;;;;948068;145;27316;-82
2022/12/08 01:56:44;;;;;;;13.20;8.23;;;7.30;96.00;;;;;;954933;146;27275;-82
2022/12/08 01:59:10;;;;;;;12.27;8.83;;;7.30;96.00;;;;;;951384;146;27342;-82
2022/12/08 02:01:37;;;;;;;10.47;8.90;;;7.30;95.90;;;;;;936123;149;27725;-82
2022/12/08 02:04:04;;;;;;;11.23;8.83;;;7.30;95.90;;;;;;959572;145;27298;-82
2022/12/08 02:06:32;;;;;;;11.33;9.03;;;7.30;95.90;;;;;;957169;145;27300;-81
2022/12/08 02:08:59;;;;;;;10.17;8.50;;;7.30;95.90;;;;;;956222;146;27466;-82
2022/12/08 02:11:26;;;;;;;10.67;8.93;;;7.20;95.90;;;;;;955561;145;27310;-82
2022/12/08 02:13:52;;;;;;;10.10;8.57;;;7.20;95.90;;;;;;955151;146;27298;-81
2022/12/08 02:16:22;;;;;;;10.60;8.90;;;7.20;95.90;;;;;;948189;148;27390;-82
2022/12/08 02:19:22;;;;;;;11.17;8.83;;;7.20;96.00;;;;;;941711;147;27298;-82
2022/12/08 02:21:52;;;;;;;9.63;8.63;;;7.30;96.00;;;;;;942777;147;27286;-82
2022/12/08 02:24:27;;;;;;;11.40;8.37;;;7.20;95.90;;;;;;942126;147;27301;-82
2022/12/08 02:26:54;;;;;;;9.43;8.03;;;7.20;96.00;;;;;;942304;147;27376;-82
2022/12/08 02:29:45;;;;;;;9.83;8.17;;;7.20;96.00;;;;;;942277;147;27308;-82
2022/12/08 02:32:18;;;;;;;8.97;8.07;;;7.20;96.00;;;;;;942492;147;28290;-82
2022/12/08 02:34:47;;;;;;;10.93;8.30;;;7.20;96.00;;;;;;929698;148;27414;-82
2022/12/08 02:37:22;;;;;;;8.80;7.77;;;7.20;96.00;;;;;;941301;147;27278;-82
2022/12/08 02:40:07;;;;;;;9.87;8.47;;;7.20;96.00;;;;;;943439;147;27446;-82
2022/12/08 02:42:48;;;;;;;11.20;9.13;;;7.20;96.00;;;;;;941924;147;28324;-82
2022/12/08 02:45:15;;;;;;;11.67;8.37;;;7.20;96.00;;;;;;937457;147;27287;-82
2022/12/08 02:47:41;;;;;;;9.67;8.70;;;7.20;96.00;;;;;;942194;147;27981;-82
2022/12/08 02:52:53;;;;;;;11.63;9.50;;;7.20;96.00;;;;;;940275;147;27490;-82
2022/12/08 02:55:22;;;;;;;11.60;8.77;;;7.20;96.00;;;;;;943145;147;27391;-82
2022/12/08 02:57:51;;;;;;;11.40;8.93;;;7.20;96.00;;;;;;943957;147;27254;-81
2022/12/08 03:00:18;;;;;;;10.17;8.37;;;7.20;96.00;;;;;;942904;147;27728;-82
2022/12/08 03:02:45;;;;;;;10.30;9.13;;;7.20;96.00;;;;;;943257;147;27353;-81
2022/12/08 03:05:30;;;;;;;10.63;8.90;;;7.20;96.10;;;;;;940257;147;27349;-81
2022/12/08 03:08:02;;;;;;;11.03;8.47;;;7.20;96.10;;;;;;942373;147;27437;-82
2022/12/08 03:10:32;;;;;;;10.13;8.17;;;7.20;96.10;;;;;;941078;147;27379;-82
2022/12/08 03:12:58;;;;;;;10.97;9.07;;;7.20;96.10;;;;;;943131;147;27332;-81
2022/12/08 03:15:25;;;;;;;10.43;9.00;;;7.20;96.20;;;;;;941209;147;27291;-82
2022/12/08 03:17:52;;;;;;;11.73;9.10;;;7.20;96.20;;;;;;953242;146;27466;-81
2022/12/08 03:20:18;;;;;;;11.33;9.00;;;7.20;96.20;;;;;;952596;145;28377;-82
2022/12/08 03:22:45;;;;;;;10.63;9.20;;;7.20;95.70;;;;;;955236;146;27267;-81
2022/12/08 03:25:11;;;;;;;13.00;8.87;;;7.20;96.10;;;;;;954366;146;27341;-81
2022/12/08 03:27:38;;;;;;;9.70;8.67;;;7.20;96.10;;;;;;953930;145;27323;-82
2022/12/08 03:30:05;;;;;;;11.93;9.33;;;7.20;96.10;;;;;;953622;146;27284;-82
2022/12/08 03:32:46;;;;;;;9.57;8.40;;;7.20;96.10;;;;;;954865;146;27330;-81
2022/12/08 03:35:10;;;;;;;11.20;9.23;;;7.20;96.10;;;;;;951941;146;28110;-82
2022/12/08 03:37:36;;;;;;;11.03;9.13;;;7.10;96.10;;;;;;937048;149;27320;-82
2022/12/08 03:40:06;;;;;;;11.07;8.90;;;7.10;96.10;;;;;;936124;148;27323;-82
2022/12/08 03:42:32;;;;;;;11.73;9.20;;;7.10;96.20;;;;;;935395;149;27365;-82
2022/12/08 03:44:59;;;;;;;11.90;8.53;;;7.10;96.10;;;;;;934854;151;27864;-82
2022/12/08 03:47:25;;;;;;;11.63;9.27;;;7.10;96.10;;;;;;954140;148;27843;-82
2022/12/08 03:49:52;;;;;;;10.67;8.83;;;7.10;96.10;;;;;;944107;149;27406;-82
2022/12/08 03:52:19;;;;;;;10.10;8.57;;;7.10;96.00;;;;;;943014;148;27369;-82
2022/12/08 03:54:45;;;;;;;10.90;8.63;;;7.10;96.00;;;;;;936718;149;27293;-82
2022/12/08 03:57:12;;;;;;;10.47;8.70;;;7.10;96.10;;;;;;934118;149;27397;-82
2022/12/08 03:59:38;;;;;;;11.07;8.83;;;7.10;96.20;;;;;;955761;146;27352;-82
2022/12/08 04:02:05;;;;;;;11.07;8.40;;;7.00;96.20;;;;;;954589;146;27376;-82
2022/12/08 04:04:31;;;;;;;12.83;8.97;;;7.00;96.30;;;;;;954883;146;27289;-81
2022/12/08 04:06:58;;;;;;;10.60;8.90;;;7.00;96.70;;;;;;953224;146;27391;-82
2022/12/08 04:09:25;;;;;;;11.10;8.23;;;7.00;96.30;;;;;;955193;146;27476;-82
2022/12/08 04:11:51;;;;;;;10.97;8.93;;;7.00;96.40;;;;;;953843;147;27354;-82
2022/12/08 04:14:18;;;;;;;11.00;8.87;;;7.00;96.40;;;;;;956286;146;27410;-82
2022/12/08 04:16:44;;;;;;;14.00;9.47;;;7.10;96.40;;;;;;954644;146;27355;-82
2022/12/08 04:19:11;;;;;;;11.03;9.17;;;7.10;96.40;;;;;;954404;146;27293;-82
2022/12/08 04:21:38;;;;;;;12.30;9.17;;;7.10;96.40;;;;;;955152;146;27342;-82
2022/12/08 04:24:04;;;;;;;11.57;8.77;;;7.10;96.50;;;;;;953820;146;27489;-82
2022/12/08 04:26:31;;;;;;;11.50;8.37;;;7.10;96.50;;;;;;953892;145;27405;-82
2022/12/08 04:28:57;;;;;;;10.90;8.50;;;7.10;96.60;;;;;;954640;146;27429;-82
2022/12/08 04:31:24;;;;;;;10.67;8.60;;;7.10;96.60;;;;;;954734;146;27308;-82
2022/12/08 04:33:50;;;;;;;13.20;8.57;;;7.10;96.50;;;;;;953313;148;27437;-82
2022/12/08 04:36:17;;;;;;;13.20;8.57;;;7.10;96.50;;;;;;952733;146;27759;-81
2022/12/08 04:38:44;;;;;;;11.50;9.30;;;7.10;96.50;;;;;;953974;146;27477;-82
2022/12/08 04:41:10;;;;;;;12.33;8.27;;;7.20;96.50;;;;;;953388;146;27312;-82
2022/12/08 04:43:37;;;;;;;10.57;8.00;;;7.20;96.50;;;;;;952620;146;27295;-82
2022/12/08 04:46:07;;;;;;;10.70;8.60;;;7.20;96.40;;;;;;952963;146;27465;-81
2022/12/08 04:48:33;;;;;;;11.40;9.43;;;7.20;96.40;;;;;;952701;146;27433;-82
2022/12/08 04:51:00;;;;;;;10.53;8.20;;;7.20;96.40;;;;;;953070;146;27359;-82
2022/12/08 04:53:26;;;;;;;10.40;8.03;;;7.20;96.40;;;;;;955097;146;27403;-82
2022/12/08 04:55:53;;;;;;;9.77;7.80;;;7.20;96.50;;;;;;942176;149;27399;-82
2022/12/08 04:58:20;;;;;;;9.33;8.00;;;7.20;96.50;;;;;;936677;151;27294;-80
2022/12/08 05:00:46;;;;;;;10.40;7.93;;;7.20;96.50;;;;;;945461;149;27330;-83
2022/12/08 05:03:13;;;;;;;10.77;8.47;;;7.20;96.50;;;;;;942795;148;27449;-83
2022/12/08 05:05:39;;;;;;;10.60;7.60;;;7.20;96.50;;;;;;955235;146;27361;-84
2022/12/08 05:08:06;;;;;;;9.80;8.17;;;7.20;96.50;;;;;;939556;149;27310;-84
2022/12/08 05:10:32;;;;;;;10.17;8.37;;;7.20;96.60;;;;;;936901;149;27398;-83
2022/12/08 05:12:59;;;;;;;9.80;7.77;;;7.20;96.50;;;;;;954372;145;27381;-83
2022/12/08 05:15:26;;;;;;;10.50;8.63;;;7.20;96.50;;;;;;955079;146;27344;-83
2022/12/08 05:17:52;;;;;;;10.30;8.23;;;7.20;96.50;;;;;;954908;146;27502;-83
2022/12/08 05:20:19;;;;;;;10.33;8.53;;;7.20;96.60;;;;;;953336;146;27423;-83
2022/12/08 05:22:46;;;;;;;10.30;8.47;;;7.20;96.60;;;;;;955439;146;27268;-84
2022/12/08 05:25:12;;;;;;;10.13;9.07;;;7.20;96.60;;;;;;955887;146;27299;-83
2022/12/08 05:27:39;;;;;;;10.73;8.13;;;7.20;96.60;;;;;;954468;147;27295;-84
2022/12/08 05:30:05;;;;;;;11.07;8.00;;;7.20;96.60;;;;;;954746;145;27460;-83
2022/12/08 05:32:32;;;;;;;8.43;7.60;;;7.20;96.60;;;;;;956446;146;27763;-83
2022/12/08 05:34:59;;;;;;;8.83;7.33;;;7.20;96.60;;;;;;954033;146;27316;-83
2022/12/08 05:37:25;;;;;;;9.50;7.97;;;7.20;96.60;;;;;;955518;146;27319;-84
2022/12/08 05:39:52;;;;;;;9.13;7.47;;;7.20;96.60;;;;;;955873;146;27316;-83
2022/12/08 05:42:18;;;;;;;8.87;7.97;;;7.20;96.60;;;;;;954924;146;27278;-83
2022/12/08 05:44:45;;;;;;;8.67;7.57;;;7.20;96.50;;;;;;955520;146;27376;-83
2022/12/08 05:47:11;;;;;;;10.47;8.30;;;7.20;96.50;;;;;;953662;146;27348;-83
2022/12/08 05:49:38;;;;;;;9.27;7.80;;;7.20;96.40;;;;;;955609;146;27274;-83
2022/12/08 05:52:05;;;;;;;8.40;7.30;;;7.10;96.30;;;;;;954727;146;27287;-83
2022/12/08 05:54:31;;;;;;;8.40;7.27;;;7.10;96.30;;;;;;954422;146;27408;-83
2022/12/08 05:56:58;;;;;;;9.83;7.73;;;7.10;96.30;;;;;;954799;146;27359;-83
2022/12/08 05:59:24;;;;;;;10.57;7.10;;;7.10;96.30;;;;;;955627;146;27348;-83
2022/12/08 06:01:51;;;;;;;10.60;7.97;;;7.10;96.40;;;;;;954503;146;27371;-83
2022/12/08 06:04:18;;;;;;;8.77;7.30;;;7.10;96.40;;;;;;952940;146;27386;-83
2022/12/08 06:06:44;;;;;;;10.00;7.40;;;7.00;96.30;;;;;;955208;146;27299;-83
2022/12/08 06:09:11;;;;;;;9.33;7.33;;;7.00;96.40;;;;;;952948;146;27466;-83
2022/12/08 06:11:37;;;;;;;7.90;7.07;;;7.00;96.50;;;;;;953683;146;27356;-83
2022/12/08 06:14:04;;;;;;;9.13;7.43;;;7.00;96.90;;;;;;957841;146;27292;-83
2022/12/08 06:16:30;;;;;;;9.27;7.23;;;7.00;96.60;;;;;;954577;146;27276;-83
2022/12/08 06:18:57;;;;;;;8.30;7.40;;;7.00;96.70;;;;;;947521;146;27350;-83
2022/12/08 06:21:24;;;;;;;7.70;6.90;;;7.00;96.70;;;;;;944598;147;27346;-83
2022/12/08 06:23:50;;;;;;;8.30;7.23;;;7.00;96.60;;;;;;942974;147;27782;-83
2022/12/08 06:26:17;;;;;;;8.13;6.83;;;7.00;96.70;;;;;;940279;147;27307;-83
2022/12/08 06:28:43;;;;;;;8.37;7.00;;;7.00;96.70;;;;;;943210;147;27842;-83
2022/12/08 06:31:13;;;;;;;9.43;7.23;;;7.00;96.70;;;;;;942216;147;27270;-83
2022/12/08 06:33:39;;;;;;;8.50;7.60;;;7.00;96.70;;;;;;941651;147;27455;-83
2022/12/08 06:36:06;;;;;;;8.70;7.33;;;7.00;96.60;;;;;;944160;147;27832;-83
2022/12/08 06:38:32;;;;;;;8.03;7.23;;;7.00;96.60;;;;;;942646;147;27398;-83
2022/12/08 06:40:59;;;;;;;10.17;7.50;;;7.00;96.70;;;;;;941403;147;27391;-83
2022/12/08 06:43:26;;;;;;;9.07;7.37;;;7.00;96.70;;;;;;941607;147;27305;-83
2022/12/08 06:45:52;;;;;;;8.03;7.10;;;7.00;96.70;;;;;;940642;147;27305;-83
2022/12/08 06:48:19;;;;;;;9.63;7.50;;;7.00;96.70;;;;;;942834;147;27696;-84
2022/12/08 06:50:45;;;;;;;8.90;7.23;;;7.00;96.60;;;;;;940493;147;27349;-83
2022/12/08 06:53:12;;;;;;;8.17;6.53;;;7.00;96.70;;;;;;942090;147;27251;-83
2022/12/08 06:55:44;;;;;;;9.23;6.53;;;7.00;96.70;;;;;;941428;147;27398;-83
2022/12/08 06:58:11;;;;;;;7.90;6.90;;;7.00;96.80;;;;;;940239;147;27339;-83
2022/12/08 07:00:38;;;;;;;8.33;7.37;;;7.00;96.80;;;;;;942448;147;27385;-84
2022/12/08 07:03:04;;;;;;;9.27;7.40;;;7.00;96.70;;;;;;943868;147;27313;-83
2022/12/08 07:05:31;;;;;;;10.20;7.63;;;7.10;96.70;;;;;;941886;148;27395;-84
2022/12/08 07:07:57;;;;;;;7.77;6.97;;;7.10;96.80;;;;;;943220;147;27343;-84
2022/12/08 07:10:24;;;;;;;8.77;7.57;;;7.10;96.70;;;;;;942306;147;27294;-84
2022/12/08 07:12:50;;;;;;;10.43;7.80;;;7.10;96.70;;;;;;939746;147;27332;-84
2022/12/08 07:15:17;;;;;;;9.50;7.73;;;7.10;96.70;;;;;;921014;150;27468;-83
2022/12/08 07:17:44;;;;;;;10.00;7.53;;;7.10;96.70;;;;;;943551;147;27345;-84
2022/12/08 07:20:10;;;;;;;8.97;7.50;;;7.10;96.70;;;;;;930287;149;27427;-83
2022/12/08 07:22:37;;;;;;;14.77;11.97;;;7.10;96.70;;;;;;919267;150;27299;-84
2022/12/08 07:25:03;;;;;;;9.60;8.53;;;7.10;96.70;;;;;;941110;147;27424;-83
2022/12/08 07:27:30;;;;;;;12.37;8.87;;;7.10;96.70;;;;;;940514;147;27445;-84
2022/12/08 07:29:57;;;;;;;9.13;7.10;;;7.10;96.70;;;;;;942081;147;27313;-83
2022/12/08 07:32:23;;;;;;;9.00;8.07;;;7.10;96.70;;;;;;941125;147;27337;-83
2022/12/08 07:34:50;;;;;;;9.70;8.80;;;7.10;96.70;;;;;;942792;147;27320;-83
2022/12/08 07:37:16;;;;;;;10.07;8.57;;;7.10;96.80;;;;;;942217;147;27309;-84
2022/12/08 07:39:43;;;;;;;12.37;8.80;;;7.10;96.90;;;;;;941510;147;27376;-82
2022/12/08 07:42:09;;;;;;;8.67;7.77;;;7.10;96.90;;;;;;941639;147;27841;-83
2022/12/08 07:44:36;;;;;;;12.37;7.60;;;7.10;97.00;;;;;;942527;147;27629;-83
2022/12/08 07:47:03;;;;;;;9.87;7.50;;;7.20;97.00;;;;;;942160;147;27318;-84
2022/12/08 07:49:29;;;;;;;10.10;8.37;;;7.20;97.00;;;;;;941129;147;27328;-83
2022/12/08 07:51:56;;;;;;;9.13;7.63;;;7.20;97.00;;;;;;940151;147;27364;-84
2022/12/08 07:54:22;;;;;;;10.80;7.43;;;7.20;97.10;;;;;;941998;147;28038;-84
2022/12/08 07:56:49;;;;;;;9.63;7.70;;;7.20;97.00;;;;;;939875;147;27396;-83
2022/12/08 07:59:16;;;;;;;8.20;6.77;;;7.30;96.90;;;;;;941087;147;27365;-84
2022/12/08 08:01:42;;;;;;;7.77;6.93;;;7.30;96.90;;;;;;943453;147;27396;-84
2022/12/08 08:04:09;;;;;;;8.37;7.03;;;7.30;96.90;;;;;;942249;147;27401;-83
2022/12/08 08:06:36;;;;;;;7.93;7.13;;;7.30;96.90;;;;;;940604;147;27479;-83
2022/12/08 08:09:02;;;;;;;8.07;7.23;;;7.30;96.80;;;;;;941964;147;28517;-84
2022/12/08 08:11:28;;;;;;;8.10;7.17;;;7.30;96.70;;;;;;940828;147;27381;-83
2022/12/08 08:13:55;;;;;;;8.23;6.57;;;7.40;96.70;;;;;;939973;147;27307;-83
2022/12/08 08:16:22;;;;;;;8.97;7.30;;;7.40;96.70;;;;;;942574;147;27279;-83
2022/12/08 08:18:48;;;;;;;8.63;7.13;;;7.40;96.70;;;;;;944225;147;27349;-83
2022/12/08 08:21:15;;;;;;;7.60;6.83;;;7.40;96.70;;;;;;956627;145;27419;-83
2022/12/08 08:23:41;;;;;;;8.70;6.90;;;7.40;96.70;;;;;;957140;145;27342;-83
2022/12/08 08:26:08;;;;;;;7.80;6.73;;;7.40;96.70;;;;;;953664;145;27332;-84
2022/12/08 08:28:35;;;;;;;9.90;7.43;;;7.40;96.70;;;;;;952837;145;27248;-84
2022/12/08 08:31:01;;;;;;;8.37;6.93;;;7.40;96.60;;;;;;955074;145;27375;-83
2022/12/08 08:33:28;;;;;;;8.30;6.90;;;7.50;96.70;;;;;;953332;145;27366;-83
2022/12/08 08:35:54;;;;;;;9.87;7.30;;;7.50;96.70;;;;;;953915;146;27356;-84
2022/12/08 08:38:21;;;;;;;7.40;6.63;;;7.50;96.70;;;;;;954075;146;27366;-83
2022/12/08 08:40:48;;;;;;;8.93;8.03;;;7.50;96.70;;;;;;955347;145;27310;-83
2022/12/08 08:43:27;;;;;;;8.97;8.07;;;7.60;96.70;;;;;;954852;145;27339;-83
2022/12/08 08:45:41;;;;;;;7.97;7.17;;;7.60;96.70;;;;;;952820;146;27362;-84
2022/12/08 08:48:07;;;;;;;8.20;7.37;;;7.60;96.70;;;;;;954885;145;27321;-83
2022/12/08 08:50:34;;;;;;;8.50;7.20;;;7.60;96.70;;;;;;954140;145;27313;-83
2022/12/08 08:53:00;;;;;;;8.03;7.23;;;7.70;96.80;;;;;;954814;148;27316;-81
2022/12/08 08:55:27;;;;;;;8.80;7.20;;;7.70;96.80;;;;;;955374;145;27289;-81
2022/12/08 08:57:54;;;;;;;12.80;8.00;;;7.80;96.80;;;;;;954270;146;27398;-82
2022/12/08 09:00:20;;;;;;;7.97;7.03;;;7.80;96.90;;;;;;955144;145;27476;-81
2022/12/08 09:02:47;;;;;;;8.87;7.57;;;7.90;97.00;;;;;;955301;145;27855;-82
2022/12/08 09:05:13;;;;;;;8.37;7.10;;;7.90;97.00;;;;;;953243;145;27244;-81
2022/12/08 09:07:40;;;;;;;8.20;7.10;;;8.00;97.10;;;;;;953426;146;27291;-81
2022/12/08 09:10:07;;;;;;;7.93;7.13;;;8.00;96.90;;;;;;955385;146;27505;-81
2022/12/08 09:12:33;;;;;;;8.17;6.77;;;8.10;96.70;;;;;;954140;145;27367;-81
2022/12/08 09:15:00;;;;;;;8.40;6.97;;;8.10;96.60;;;;;;954182;145;27438;-82
2022/12/08 09:17:26;;;;;;;7.83;6.27;;;8.20;96.40;;;;;;954933;146;27416;-82
2022/12/08 09:19:53;;;;;;;7.23;6.50;;;8.20;96.30;;;;;;954882;145;27288;-82
2022/12/08 09:22:20;;;;;;;7.50;6.37;;;8.30;96.20;;;;;;943105;147;27351;-82
2022/12/08 09:24:46;;;;;;;7.63;6.83;;;8.30;96.10;;;;;;942641;147;27787;-81
2022/12/08 09:27:13;;;;;;;6.90;6.20;;;8.30;95.90;;;;;;942440;147;27447;-82
2022/12/08 09:29:39;;;;;;;7.60;6.47;;;8.40;95.90;;;;;;941643;147;27276;-82
2022/12/08 09:32:06;;;;;;;7.47;6.70;;;8.40;96.00;;;;;;942564;147;27295;-81
2022/12/08 09:34:33;;;;;;;8.53;7.13;;;8.50;96.10;;;;;;940690;147;27265;-81
2022/12/08 09:36:59;;;;;;;8.53;7.40;;;8.50;96.10;;;;;;943560;147;27365;-80
2022/12/08 09:39:26;;;;;;;8.50;6.70;;;8.60;96.10;;;;;;943122;147;27447;-81
2022/12/08 09:42:01;;;;;;;7.40;6.33;;;8.60;96.00;;;;;;944521;147;27306;-82
2022/12/08 09:44:46;;;;;;;7.73;6.30;;;8.70;95.80;;;;;;942899;147;27863;-82
2022/12/08 09:47:13;;;;;;;7.40;6.57;;;8.80;95.20;;;;;;941863;147;27755;-82
2022/12/08 09:49:40;;;;;;;8.20;7.40;;;8.80;95.30;;;;;;940494;147;27294;-82
2022/12/08 09:52:06;;;;;;;7.80;7.00;;;8.90;95.10;;;;;;940093;147;27345;-82
2022/12/08 09:54:33;;;;;;;8.30;7.13;;;8.90;95.10;;;;;;941258;147;27348;-82
2022/12/08 09:56:59;;;;;;;7.23;6.60;;;9.00;95.20;;;;;;941110;147;27337;-81
2022/12/08 09:59:32;;;;;;;6.87;6.17;;;9.10;95.30;;;;;;942863;147;27308;-81
2022/12/08 10:01:58;;;;;;;7.30;6.10;;;9.20;95.40;;;;;;943368;147;27878;-82
2022/12/08 10:04:33;;;;;;;7.43;5.87;;;9.20;95.30;;;;;;942173;147;27357;-82
2022/12/08 10:07:18;;;;;;;8.10;6.00;;;9.30;95.10;;;;;;942847;147;27422;-81
2022/12/08 10:09:44;;;;;;;6.47;5.77;;;9.40;94.70;;;;;;942921;147;27438;-81
2022/12/08 10:12:23;;;;;;;9.77;6.50;;;9.50;94.30;;;;;;943263;147;27314;-81
2022/12/08 10:14:55;;;;;;;8.07;5.67;;;9.60;94.10;;;;;;939971;147;27360;-80
2022/12/08 10:17:22;;;;;;;6.53;5.87;;;9.70;94.10;;;;;;941895;147;28791;-81
2022/12/08 10:19:48;;;;;;;6.10;5.43;;;9.70;93.90;;;;;;941050;147;27295;-81
2022/12/08 10:22:20;;;;;;;6.67;5.80;;;9.80;93.80;;;;;;939954;147;27422;-81
2022/12/08 10:25:05;;;;;;;5.47;4.83;;;9.90;93.60;;;;;;940082;147;27445;-81
2022/12/08 10:27:31;;;;;;;5.20;4.70;;;10.10;93.30;;;;;;942865;147;27284;-81
2022/12/08 10:29:58;;;;;;;5.60;5.00;;;10.20;93.40;;;;;;941799;147;27317;-81
2022/12/08 10:32:25;;;;;;;5.73;5.13;;;10.20;93.00;;;;;;943071;147;27305;-81
2022/12/08 10:35:03;;;;;;;5.27;4.73;;;10.30;92.60;;;;;;941151;147;27481;-81
2022/12/08 10:37:29;;;;;;;5.30;4.80;;;10.40;92.20;;;;;;942018;147;27353;-81
2022/12/08 10:40:00;;;;;;;4.93;4.43;;;10.50;91.70;;;;;;943419;147;27301;-81
2022/12/08 10:42:26;;;;;;;5.50;5.00;;;10.50;91.40;;;;;;942158;147;27309;-82
2022/12/08 10:45:01;;;;;;;6.67;5.03;;;10.60;90.60;;;;;;941230;147;27344;-81
2022/12/08 10:47:28;;;;;;;5.67;4.50;;;10.60;90.30;;;;;;942267;147;27423;-81
2022/12/08 10:50:17;;;;;;;4.30;3.90;;;10.60;90.30;;;;;;943113;147;28082;-81
2022/12/08 10:52:42;;;;;;;4.97;4.50;;;10.60;90.20;;;;;;942017;147;28418;-82
2022/12/08 10:55:17;;;;;;;6.77;4.10;;;10.60;90.20;;;;;;942360;147;27263;-82
2022/12/08 10:57:44;;;;;;;5.67;4.73;;;10.60;90.20;;;;;;941198;147;27355;-82
2022/12/08 11:00:13;;;;;;;4.87;4.43;;;10.70;90.50;;;;;;943301;147;27334;-81
2022/12/08 11:02:55;;;;;;;5.57;4.43;;;10.70;90.70;;;;;;939427;147;27470;-82
2022/12/08 11:05:21;;;;;;;4.20;3.80;;;10.80;90.60;;;;;;942103;147;27874;-82
2022/12/08 11:07:51;;;;;;;5.20;4.70;;;10.80;90.50;;;;;;941430;147;27441;-81
2022/12/08 11:10:17;;;;;;;4.37;3.97;;;10.90;90.10;;;;;;942362;147;27323;-82
2022/12/08 11:12:44;;;;;;;5.40;4.87;;;10.90;89.10;;;;;;942179;147;27881;-82
2022/12/08 11:15:16;;;;;;;4.17;3.77;;;10.90;88.20;;;;;;941640;147;27765;-81
2022/12/08 11:17:44;;;;;;;4.30;3.90;;;10.90;87.80;;;;;;943624;147;27330;-82
2022/12/08 11:20:09;;;;;;;5.13;4.27;;;10.90;87.20;;;;;;941048;147;27327;-81
2022/12/08 11:22:39;;;;;;;4.47;3.80;;;10.90;86.90;;;;;;940690;147;27455;-81
2022/12/08 11:25:11;;;;;;;6.73;4.10;;;10.80;86.80;;;;;;940272;147;27487;-81
2022/12/08 11:27:37;;;;;;;5.20;3.93;;;10.80;86.70;;;;;;942139;147;27326;-81
2022/12/08 11:30:04;;;;;;;4.50;4.10;;;10.80;86.60;;;;;;940223;148;27346;-81
2022/12/08 11:32:30;;;;;;;4.23;3.90;;;10.70;86.60;;;;;;923348;148;27412;-81
2022/12/08 11:35:00;;;;;;;6.97;5.00;;;10.70;86.00;;;;;;941767;148;27387;-81
2022/12/08 11:37:26;;;;;;;4.97;4.50;;;10.70;85.30;;;;;;939339;148;27424;-82
2022/12/08 11:39:53;;;;;;;5.17;4.53;;;10.70;85.00;;;;;;937256;148;27374;-82
2022/12/08 11:42:19;;;;;;;6.43;4.80;;;10.60;84.90;;;;;;940110;148;27313;-81
2022/12/08 11:44:48;;;;;;;6.27;4.43;;;10.60;85.00;;;;;;939798;148;27318;-81
2022/12/08 11:47:18;;;;;;;7.60;4.17;;;10.60;85.40;;;;;;939108;147;27491;-81
2022/12/08 11:49:45;;;;;;;7.40;4.67;;;10.60;85.70;;;;;;938244;148;27358;-81
2022/12/08 11:52:29;;;;;;;5.20;4.70;;;10.50;85.40;;;;;;939864;148;27306;-81
2022/12/08 11:55:02;;;;;;;4.77;4.23;;;10.50;85.70;;;;;;938375;148;27412;-82
2022/12/08 11:57:28;;;;;;;5.17;4.63;;;10.60;86.00;;;;;;939120;148;27960;-81
2022/12/08 11:59:55;;;;;;;6.60;5.10;;;10.60;86.10;;;;;;939921;148;27551;-82
2022/12/08 12:02:22;;;;;;;5.07;4.57;;;10.60;86.00;;;;;;941366;148;27450;-81
2022/12/08 12:05:07;;;;;;;5.37;4.87;;;10.60;85.20;;;;;;937992;148;27328;-81
2022/12/08 12:07:39;;;;;;;6.50;4.83;;;10.70;84.80;;;;;;940941;148;27357;-82
2022/12/08 12:10:30;;;;;;;4.53;4.10;;;10.70;84.40;;;;;;937950;148;27499;-82
2022/12/08 12:13:18;;;;;;;6.70;4.17;;;10.60;84.00;;;;;;938341;148;27397;-82
2022/12/08 12:16:02;;;;;;;5.17;4.47;;;10.60;83.90;;;;;;938761;148;27478;-82
2022/12/08 12:18:35;;;;;;;5.00;4.50;;;10.50;83.50;;;;;;937516;148;27405;-82
2022/12/08 12:21:08;;;;;;;5.57;4.63;;;10.40;83.50;;;;;;939284;148;27378;-82
2022/12/08 12:23:43;;;;;;;5.43;4.70;;;10.40;83.60;;;;;;931764;150;27344;-82
2022/12/08 12:26:10;;;;;;;5.60;4.87;;;10.30;83.60;;;;;;928469;150;27370;-82
2022/12/08 12:28:39;;;;;;;5.10;4.60;;;10.20;83.30;;;;;;926215;150;27403;-81
2022/12/08 12:31:06;;;;;;;6.03;4.40;;;10.20;83.20;;;;;;928956;150;27878;-82
2022/12/08 12:33:33;;;;;;;5.57;4.80;;;10.10;83.10;;;;;;909673;153;27308;-82
2022/12/08 12:35:59;;;;;;;6.03;4.10;;;10.10;83.20;;;;;;909251;152;27462;-82
2022/12/08 12:41:13;;;;;;;5.57;4.57;;;10.00;83.40;;;;;;920496;152;27377;-82
2022/12/08 12:43:40;;;;;;;5.70;4.90;;;9.90;83.80;;;;;;948560;146;27538;-82
2022/12/08 12:46:22;;;;;;;5.40;4.50;;;9.90;84.00;;;;;;942255;150;27433;-81
2022/12/08 12:48:48;;;;;;;4.93;4.43;;;9.90;83.90;;;;;;913824;152;27351;-82
2022/12/08 12:51:39;;;;;;;5.60;4.63;;;9.90;84.00;;;;;;944718;146;27290;-81
2022/12/08 12:54:21;;;;;;;5.27;4.37;;;9.90;83.90;;;;;;918027;152;27332;-82
2022/12/08 12:56:47;;;;;;;6.17;4.77;;;9.90;84.00;;;;;;944812;148;27453;-82
2022/12/08 12:59:29;;;;;;;5.20;4.70;;;9.90;82.90;;;;;;946151;146;27358;-82
2022/12/08 13:01:55;;;;;;;7.33;4.43;;;9.90;83.40;;;;;;946437;146;27245;-82
2022/12/08 13:04:28;;;;;;;6.40;4.93;;;9.90;83.30;;;;;;948418;146;27875;-82
2022/12/08 13:06:54;;;;;;;4.87;4.37;;;9.80;83.10;;;;;;944930;146;27377;-82
2022/12/08 13:09:21;;;;;;;6.00;4.37;;;9.80;83.10;;;;;;946080;146;27484;-82